Stephen R Warden — WDC6523 — position and weather

sailwx.info

Track history (hours):
 
Tides and Currents Weather Stations Pressure Air Temp Water Temp Dewpoint Dewpoint Depression Visibility Wind Speed Wind Dir Waves Ship Positions

Stephen R Warden

More information available from US FCC via Universal Licensing System and Coast Guard Vessel Documentation Center.

Last reported at 2014-Jul-22 13:29 UTC. Time now 2014-Jul-25 03:37 UTC.
Position N 30°01' W 090°50'.

Length 37 m; draft 3 m.

Type: Towing. MMSI: 367057460.

Date/timePositionNaut miles runAvg speedWind from/ knotsBaromVisibWave heightAir tempDewpointWater temp
2014-Jul-22 13:29N 30°01' W 090°50'2 2.5
2014-Jul-22 12:33N 29°59' W 090°48'3 2.6
2014-Jul-22 11:33N 30°01' W 090°46'3 1.3
2014-Jul-22 09:25N 30°01' W 090°43'  
2014-Jul-19 08:16N 30°01' W 090°46'1 0.4
2014-Jul-19 06:33N 30°01' W 090°46'0 0.0
2014-Jul-19 05:31N 30°01' W 090°46'0 0.0
2014-Jul-19 04:16N 30°01' W 090°46'0 0.0
2014-Jul-19 03:33N 30°01' W 090°46'0 0.0
2014-Jul-17 13:09N 30°01' W 090°46'0 0.0
2014-Jul-17 11:26N 30°01' W 090°46'3 1.5
2014-Jul-17 09:20N 30°01' W 090°42'3 3.2
2014-Jul-17 08:31N 30°03' W 090°40'3 2.9
2014-Jul-17 07:33N 30°02' W 090°37'2 1.6
2014-Jul-17 06:33N 30°03' W 090°35'1 0.9
2014-Jul-17 05:25N 30°03' W 090°34'4 4.6
2014-Jul-17 04:31N 30°03' W 090°29'1 0.1
2014-Jul-16 12:25N 30°03' W 090°30'5 5.3
2014-Jul-16 11:25N 30°03' W 090°36'9 2.2
2014-Jul-16 07:32N 30°01' W 090°46'0 0.1
2014-Jul-16 06:16N 30°01' W 090°46'12 3.8
2014-Jul-16 03:06N 30°07' W 090°58'10 0.4
2014-Jul-15 02:05N 29°60' W 090°50'2 4.0
2014-Jul-15 01:33N 29°60' W 090°47'3 0.1
2014-Jul-14 01:32N 30°01' W 090°45'0 0.4
2014-Jul-14 00:33N 30°01' W 090°45'1 0.3
2014-Jul-13 22:19N 30°01' W 090°44'1 0.1
2014-Jul-13 09:28N 30°01' W 090°46'0 0.0
2014-Jul-13 07:22N 30°01' W 090°46'1 0.3
2014-Jul-13 02:32N 30°01' W 090°44'10 0.8
2014-Jul-12 14:15N 30°03' W 090°33'3 4.5
2014-Jul-12 13:33N 30°03' W 090°29'  
Track history (hours):
 
Tides and Currents Weather Stations Pressure Air Temp Water Temp Dewpoint Dewpoint Depression Visibility Wind Speed Wind Dir Waves Ship Positions

Stephen R Warden

More information available from US FCC via Universal Licensing System and Coast Guard Vessel Documentation Center.

Last reported at 2014-Jul-22 13:29 UTC. Time now 2014-Jul-25 03:37 UTC.
Position N 30°01' W 090°50'.

Length 37 m; draft 3 m.

Type: Towing. MMSI: 367057460.

Date/timePositionNaut miles runAvg speedWind from/ knotsBaromVisibWave heightAir tempDewpointWater temp
2014-Jul-22 13:29N 30°01' W 090°50'2 2.5
2014-Jul-22 12:33N 29°59' W 090°48'3 2.6
2014-Jul-22 11:33N 30°01' W 090°46'3 1.3
2014-Jul-22 09:25N 30°01' W 090°43'  
2014-Jul-19 08:16N 30°01' W 090°46'1 0.4
2014-Jul-19 06:33N 30°01' W 090°46'0 0.0
2014-Jul-19 05:31N 30°01' W 090°46'0 0.0
2014-Jul-19 04:16N 30°01' W 090°46'0 0.0
2014-Jul-19 03:33N 30°01' W 090°46'0 0.0
2014-Jul-17 13:09N 30°01' W 090°46'0 0.0
2014-Jul-17 11:26N 30°01' W 090°46'3 1.5
2014-Jul-17 09:20N 30°01' W 090°42'3 3.2
2014-Jul-17 08:31N 30°03' W 090°40'3 2.9
2014-Jul-17 07:33N 30°02' W 090°37'2 1.6
2014-Jul-17 06:33N 30°03' W 090°35'1 0.9
2014-Jul-17 05:25N 30°03' W 090°34'4 4.6
2014-Jul-17 04:31N 30°03' W 090°29'1 0.1
2014-Jul-16 12:25N 30°03' W 090°30'5 5.3
2014-Jul-16 11:25N 30°03' W 090°36'9 2.2
2014-Jul-16 07:32N 30°01' W 090°46'0 0.1
2014-Jul-16 06:16N 30°01' W 090°46'12 3.8
2014-Jul-16 03:06N 30°07' W 090°58'10 0.4
2014-Jul-15 02:05N 29°60' W 090°50'2 4.0
2014-Jul-15 01:33N 29°60' W 090°47'3 0.1
2014-Jul-14 01:32N 30°01' W 090°45'0 0.4
2014-Jul-14 00:33N 30°01' W 090°45'1 0.3
2014-Jul-13 22:19N 30°01' W 090°44'1 0.1
2014-Jul-13 09:28N 30°01' W 090°46'0 0.0
2014-Jul-13 07:22N 30°01' W 090°46'1 0.3
2014-Jul-13 02:32N 30°01' W 090°44'10 0.8
2014-Jul-12 14:15N 30°03' W 090°33'3 4.5
2014-Jul-12 13:33N 30°03' W 090°29'  

Dump ship's entire track history